sensor_id;sensor_type;location;lat;lon;timestamp;P1;durP1;ratioP1;P2;durP2;ratioP2
73684;SDS011;61985;51.070;14.064;2023-02-07T00:04:42;20.87;;;8.87;;
73684;SDS011;61985;51.070;14.064;2023-02-07T00:07:07;21.37;;;8.03;;
73684;SDS011;61985;51.070;14.064;2023-02-07T00:09:32;20.93;;;8.87;;
73684;SDS011;61985;51.070;14.064;2023-02-07T00:12:01;19.50;;;9.50;;
73684;SDS011;61985;51.070;14.064;2023-02-07T00:14:26;21.40;;;9.43;;
73684;SDS011;61985;51.070;14.064;2023-02-07T00:16:52;18.30;;;8.23;;
73684;SDS011;61985;51.070;14.064;2023-02-07T00:19:17;22.00;;;10.07;;
73684;SDS011;61985;51.070;14.064;2023-02-07T00:21:43;24.00;;;8.77;;
73684;SDS011;61985;51.070;14.064;2023-02-07T00:24:08;23.70;;;9.47;;
73684;SDS011;61985;51.070;14.064;2023-02-07T00:26:33;17.10;;;8.30;;
73684;SDS011;61985;51.070;14.064;2023-02-07T00:28:59;18.83;;;7.73;;
73684;SDS011;61985;51.070;14.064;2023-02-07T00:31:25;17.50;;;8.53;;
73684;SDS011;61985;51.070;14.064;2023-02-07T00:33:53;17.90;;;8.53;;
73684;SDS011;61985;51.070;14.064;2023-02-07T00:36:21;18.37;;;7.73;;
73684;SDS011;61985;51.070;14.064;2023-02-07T00:38:48;22.50;;;9.47;;
73684;SDS011;61985;51.070;14.064;2023-02-07T00:41:14;23.43;;;9.57;;
73684;SDS011;61985;51.070;14.064;2023-02-07T00:43:42;18.57;;;8.07;;
73684;SDS011;61985;51.070;14.064;2023-02-07T00:46:09;24.57;;;8.37;;
73684;SDS011;61985;51.070;14.064;2023-02-07T00:48:35;23.53;;;9.50;;
73684;SDS011;61985;51.070;14.064;2023-02-07T00:51:03;18.23;;;7.47;;
73684;SDS011;61985;51.070;14.064;2023-02-07T00:53:29;23.73;;;8.83;;
73684;SDS011;61985;51.070;14.064;2023-02-07T00:55:54;13.30;;;7.40;;
73684;SDS011;61985;51.070;14.064;2023-02-07T00:58:20;25.50;;;7.97;;
73684;SDS011;61985;51.070;14.064;2023-02-07T01:00:45;19.87;;;9.27;;
73684;SDS011;61985;51.070;14.064;2023-02-07T01:03:11;17.73;;;9.40;;
73684;SDS011;61985;51.070;14.064;2023-02-07T01:05:37;19.83;;;8.77;;
73684;SDS011;61985;51.070;14.064;2023-02-07T01:08:02;20.77;;;9.57;;
73684;SDS011;61985;51.070;14.064;2023-02-07T01:10:28;19.70;;;8.37;;
73684;SDS011;61985;51.070;14.064;2023-02-07T01:12:54;19.10;;;9.43;;
73684;SDS011;61985;51.070;14.064;2023-02-07T01:15:19;23.10;;;10.23;;
73684;SDS011;61985;51.070;14.064;2023-02-07T01:17:45;18.90;;;9.13;;
73684;SDS011;61985;51.070;14.064;2023-02-07T01:20:11;25.07;;;10.17;;
73684;SDS011;61985;51.070;14.064;2023-02-07T01:22:37;16.67;;;8.33;;
73684;SDS011;61985;51.070;14.064;2023-02-07T01:25:03;18.10;;;7.73;;
73684;SDS011;61985;51.070;14.064;2023-02-07T01:27:30;24.53;;;9.40;;
73684;SDS011;61985;51.070;14.064;2023-02-07T01:29:56;22.83;;;9.90;;
73684;SDS011;61985;51.070;14.064;2023-02-07T01:32:22;22.70;;;10.70;;
73684;SDS011;61985;51.070;14.064;2023-02-07T01:34:47;20.20;;;8.93;;
73684;SDS011;61985;51.070;14.064;2023-02-07T01:37:12;20.47;;;9.67;;
73684;SDS011;61985;51.070;14.064;2023-02-07T01:39:38;22.93;;;9.00;;
73684;SDS011;61985;51.070;14.064;2023-02-07T01:42:03;20.67;;;9.33;;
73684;SDS011;61985;51.070;14.064;2023-02-07T01:46:55;18.63;;;8.50;;
73684;SDS011;61985;51.070;14.064;2023-02-07T01:49:27;20.30;;;8.40;;
73684;SDS011;61985;51.070;14.064;2023-02-07T01:51:56;23.00;;;9.27;;
73684;SDS011;61985;51.070;14.064;2023-02-07T01:54:24;16.87;;;7.87;;
73684;SDS011;61985;51.070;14.064;2023-02-07T01:56:56;20.63;;;8.43;;
73684;SDS011;61985;51.070;14.064;2023-02-07T01:59:25;22.87;;;8.40;;
73684;SDS011;61985;51.070;14.064;2023-02-07T02:01:52;20.67;;;8.17;;
73684;SDS011;61985;51.070;14.064;2023-02-07T02:04:18;19.10;;;8.37;;
73684;SDS011;61985;51.070;14.064;2023-02-07T02:06:44;23.97;;;9.53;;
73684;SDS011;61985;51.070;14.064;2023-02-07T02:09:11;19.60;;;8.70;;
73684;SDS011;61985;51.070;14.064;2023-02-07T02:28:03;20.97;;;8.43;;
73684;SDS011;61985;51.070;14.064;2023-02-07T02:33:04;16.60;;;7.83;;
73684;SDS011;61985;51.070;14.064;2023-02-07T02:38:33;19.93;;;9.27;;
73684;SDS011;61985;51.070;14.064;2023-02-07T02:43:42;22.77;;;9.40;;
73684;SDS011;61985;51.070;14.064;2023-02-07T02:46:14;21.60;;;8.83;;
73684;SDS011;61985;51.070;14.064;2023-02-07T02:48:44;20.33;;;9.10;;
73684;SDS011;61985;51.070;14.064;2023-02-07T02:51:09;28.00;;;8.63;;
73684;SDS011;61985;51.070;14.064;2023-02-07T02:53:35;22.20;;;9.17;;
73684;SDS011;61985;51.070;14.064;2023-02-07T03:01:16;18.93;;;8.07;;
73684;SDS011;61985;51.070;14.064;2023-02-07T03:03:58;16.63;;;7.97;;
73684;SDS011;61985;51.070;14.064;2023-02-07T03:06:31;21.53;;;7.93;;
73684;SDS011;61985;51.070;14.064;2023-02-07T03:12:08;20.00;;;8.97;;
73684;SDS011;61985;51.070;14.064;2023-02-07T03:14:52;17.60;;;8.17;;
73684;SDS011;61985;51.070;14.064;2023-02-07T03:17:27;22.57;;;7.70;;
73684;SDS011;61985;51.070;14.064;2023-02-07T03:20:17;18.40;;;7.97;;
73684;SDS011;61985;51.070;14.064;2023-02-07T03:22:47;16.40;;;8.47;;
73684;SDS011;61985;51.070;14.064;2023-02-07T03:25:15;19.70;;;8.97;;
73684;SDS011;61985;51.070;14.064;2023-02-07T03:27:41;14.20;;;6.97;;
73684;SDS011;61985;51.070;14.064;2023-02-07T03:30:10;19.03;;;8.03;;
73684;SDS011;61985;51.070;14.064;2023-02-07T03:32:40;21.83;;;8.07;;
73684;SDS011;61985;51.070;14.064;2023-02-07T03:35:12;15.20;;;7.43;;
73684;SDS011;61985;51.070;14.064;2023-02-07T03:37:49;21.20;;;8.03;;
73684;SDS011;61985;51.070;14.064;2023-02-07T03:40:18;16.92;;;7.97;;
73684;SDS011;61985;51.070;14.064;2023-02-07T03:45:19;16.60;;;8.07;;
73684;SDS011;61985;51.070;14.064;2023-02-07T03:47:45;18.20;;;8.47;;
73684;SDS011;61985;51.070;14.064;2023-02-07T03:50:11;20.80;;;8.57;;
73684;SDS011;61985;51.070;14.064;2023-02-07T03:52:37;20.33;;;8.10;;
73684;SDS011;61985;51.070;14.064;2023-02-07T03:55:02;14.37;;;7.80;;
73684;SDS011;61985;51.070;14.064;2023-02-07T03:57:28;16.97;;;7.37;;
73684;SDS011;61985;51.070;14.064;2023-02-07T03:59:53;17.67;;;8.47;;
73684;SDS011;61985;51.070;14.064;2023-02-07T04:02:19;17.77;;;7.93;;
73684;SDS011;61985;51.070;14.064;2023-02-07T04:04:44;20.97;;;8.70;;
73684;SDS011;61985;51.070;14.064;2023-02-07T04:07:10;20.17;;;7.80;;
73684;SDS011;61985;51.070;14.064;2023-02-07T04:09:35;16.33;;;8.30;;
73684;SDS011;61985;51.070;14.064;2023-02-07T04:12:01;26.33;;;7.93;;
73684;SDS011;61985;51.070;14.064;2023-02-07T04:14:26;17.30;;;8.73;;
73684;SDS011;61985;51.070;14.064;2023-02-07T04:16:52;20.70;;;8.20;;
73684;SDS011;61985;51.070;14.064;2023-02-07T04:19:17;16.77;;;8.60;;
73684;SDS011;61985;51.070;14.064;2023-02-07T04:21:42;14.30;;;6.73;;
73684;SDS011;61985;51.070;14.064;2023-02-07T04:24:08;17.33;;;8.40;;
73684;SDS011;61985;51.070;14.064;2023-02-07T04:26:34;19.00;;;8.83;;
73684;SDS011;61985;51.070;14.064;2023-02-07T04:29:00;21.10;;;8.43;;
73684;SDS011;61985;51.070;14.064;2023-02-07T04:31:25;17.20;;;7.13;;
73684;SDS011;61985;51.070;14.064;2023-02-07T04:33:51;23.50;;;8.30;;
73684;SDS011;61985;51.070;14.064;2023-02-07T04:36:16;17.47;;;7.83;;
73684;SDS011;61985;51.070;14.064;2023-02-07T04:38:41;24.60;;;8.77;;
73684;SDS011;61985;51.070;14.064;2023-02-07T04:41:07;20.33;;;9.07;;
73684;SDS011;61985;51.070;14.064;2023-02-07T04:43:33;21.47;;;9.13;;
73684;SDS011;61985;51.070;14.064;2023-02-07T04:46:00;17.20;;;9.00;;
73684;SDS011;61985;51.070;14.064;2023-02-07T04:48:27;15.80;;;8.00;;
73684;SDS011;61985;51.070;14.064;2023-02-07T04:50:53;16.00;;;7.67;;
73684;SDS011;61985;51.070;14.064;2023-02-07T04:53:18;14.37;;;7.33;;
73684;SDS011;61985;51.070;14.064;2023-02-07T04:55:50;20.47;;;7.90;;
73684;SDS011;61985;51.070;14.064;2023-02-07T04:58:17;17.07;;;7.50;;
73684;SDS011;61985;51.070;14.064;2023-02-07T05:00:43;20.10;;;9.43;;
73684;SDS011;61985;51.070;14.064;2023-02-07T05:03:10;19.63;;;8.43;;
73684;SDS011;61985;51.070;14.064;2023-02-07T05:05:38;18.40;;;7.90;;
73684;SDS011;61985;51.070;14.064;2023-02-07T05:08:05;15.60;;;8.37;;
73684;SDS011;61985;51.070;14.064;2023-02-07T05:10:30;14.40;;;7.27;;
73684;SDS011;61985;51.070;14.064;2023-02-07T05:12:56;17.60;;;9.33;;
73684;SDS011;61985;51.070;14.064;2023-02-07T05:15:21;23.10;;;7.73;;
73684;SDS011;61985;51.070;14.064;2023-02-07T05:17:47;22.20;;;7.67;;
73684;SDS011;61985;51.070;14.064;2023-02-07T05:20:12;21.40;;;8.40;;
73684;SDS011;61985;51.070;14.064;2023-02-07T05:22:38;16.97;;;9.13;;
73684;SDS011;61985;51.070;14.064;2023-02-07T05:25:03;18.17;;;7.90;;
73684;SDS011;61985;51.070;14.064;2023-02-07T05:27:29;15.77;;;7.60;;
73684;SDS011;61985;51.070;14.064;2023-02-07T05:29:54;18.33;;;7.37;;
73684;SDS011;61985;51.070;14.064;2023-02-07T05:32:20;14.67;;;6.80;;
73684;SDS011;61985;51.070;14.064;2023-02-07T05:35:04;14.57;;;7.40;;
73684;SDS011;61985;51.070;14.064;2023-02-07T05:37:30;15.53;;;6.37;;
73684;SDS011;61985;51.070;14.064;2023-02-07T05:39:55;17.20;;;6.30;;
73684;SDS011;61985;51.070;14.064;2023-02-07T05:42:21;17.93;;;8.57;;
73684;SDS011;61985;51.070;14.064;2023-02-07T05:44:46;20.37;;;7.03;;
73684;SDS011;61985;51.070;14.064;2023-02-07T05:47:11;25.03;;;8.33;;
73684;SDS011;61985;51.070;14.064;2023-02-07T05:49:37;19.70;;;7.50;;
73684;SDS011;61985;51.070;14.064;2023-02-07T05:52:03;15.93;;;8.03;;
73684;SDS011;61985;51.070;14.064;2023-02-07T05:54:29;19.33;;;8.70;;
73684;SDS011;61985;51.070;14.064;2023-02-07T05:56:55;45.73;;;19.43;;
73684;SDS011;61985;51.070;14.064;2023-02-07T05:59:20;19.17;;;9.53;;
73684;SDS011;61985;51.070;14.064;2023-02-07T06:01:45;25.47;;;13.00;;
73684;SDS011;61985;51.070;14.064;2023-02-07T06:04:11;24.60;;;11.37;;
73684;SDS011;61985;51.070;14.064;2023-02-07T06:06:36;22.73;;;8.53;;
73684;SDS011;61985;51.070;14.064;2023-02-07T06:09:01;23.27;;;9.43;;
73684;SDS011;61985;51.070;14.064;2023-02-07T06:11:27;18.40;;;7.93;;
73684;SDS011;61985;51.070;14.064;2023-02-07T06:13:52;16.30;;;7.93;;
73684;SDS011;61985;51.070;14.064;2023-02-07T06:16:17;17.73;;;8.13;;
73684;SDS011;61985;51.070;14.064;2023-02-07T06:18:43;17.90;;;8.07;;
73684;SDS011;61985;51.070;14.064;2023-02-07T06:21:08;19.27;;;9.43;;
73684;SDS011;61985;51.070;14.064;2023-02-07T06:23:33;26.37;;;8.10;;
73684;SDS011;61985;51.070;14.064;2023-02-07T06:25:59;20.77;;;9.53;;
73684;SDS011;61985;51.070;14.064;2023-02-07T06:28:24;21.87;;;11.27;;
73684;SDS011;61985;51.070;14.064;2023-02-07T06:30:50;29.80;;;12.33;;
73684;SDS011;61985;51.070;14.064;2023-02-07T06:33:16;23.87;;;11.40;;
73684;SDS011;61985;51.070;14.064;2023-02-07T06:35:41;18.67;;;9.23;;
73684;SDS011;61985;51.070;14.064;2023-02-07T06:38:11;21.73;;;9.47;;
73684;SDS011;61985;51.070;14.064;2023-02-07T06:40:37;23.43;;;10.63;;
73684;SDS011;61985;51.070;14.064;2023-02-07T06:43:03;25.97;;;9.87;;
73684;SDS011;61985;51.070;14.064;2023-02-07T06:45:36;14.93;;;8.33;;
73684;SDS011;61985;51.070;14.064;2023-02-07T06:48:02;19.13;;;8.40;;
73684;SDS011;61985;51.070;14.064;2023-02-07T06:50:28;20.97;;;8.67;;
73684;SDS011;61985;51.070;14.064;2023-02-07T06:52:53;20.57;;;9.13;;
73684;SDS011;61985;51.070;14.064;2023-02-07T06:55:19;17.20;;;7.90;;
73684;SDS011;61985;51.070;14.064;2023-02-07T06:57:44;16.90;;;8.73;;
73684;SDS011;61985;51.070;14.064;2023-02-07T07:00:09;25.93;;;9.33;;
73684;SDS011;61985;51.070;14.064;2023-02-07T07:02:36;24.87;;;10.17;;
73684;SDS011;61985;51.070;14.064;2023-02-07T07:05:01;31.40;;;13.07;;
73684;SDS011;61985;51.070;14.064;2023-02-07T07:07:27;50.83;;;20.37;;
73684;SDS011;61985;51.070;14.064;2023-02-07T07:09:53;40.63;;;15.87;;
73684;SDS011;61985;51.070;14.064;2023-02-07T07:12:18;24.27;;;10.47;;
73684;SDS011;61985;51.070;14.064;2023-02-07T07:14:43;16.77;;;7.20;;
73684;SDS011;61985;51.070;14.064;2023-02-07T07:17:10;16.63;;;8.47;;
73684;SDS011;61985;51.070;14.064;2023-02-07T07:19:35;18.27;;;8.73;;
73684;SDS011;61985;51.070;14.064;2023-02-07T07:22:00;19.30;;;8.10;;
73684;SDS011;61985;51.070;14.064;2023-02-07T07:24:26;18.77;;;7.70;;
73684;SDS011;61985;51.070;14.064;2023-02-07T07:26:51;19.67;;;9.17;;
73684;SDS011;61985;51.070;14.064;2023-02-07T07:29:17;21.67;;;9.60;;
73684;SDS011;61985;51.070;14.064;2023-02-07T07:31:43;26.33;;;12.10;;
73684;SDS011;61985;51.070;14.064;2023-02-07T07:34:09;43.27;;;19.37;;
73684;SDS011;61985;51.070;14.064;2023-02-07T07:36:34;39.97;;;16.27;;
73684;SDS011;61985;51.070;14.064;2023-02-07T07:39:00;32.63;;;14.57;;
73684;SDS011;61985;51.070;14.064;2023-02-07T07:41:25;36.87;;;15.43;;
73684;SDS011;61985;51.070;14.064;2023-02-07T07:43:50;33.13;;;13.00;;
73684;SDS011;61985;51.070;14.064;2023-02-07T07:46:16;27.67;;;12.80;;
73684;SDS011;61985;51.070;14.064;2023-02-07T07:48:43;34.37;;;12.93;;
73684;SDS011;61985;51.070;14.064;2023-02-07T07:51:11;23.97;;;11.40;;
73684;SDS011;61985;51.070;14.064;2023-02-07T07:53:36;26.13;;;11.40;;
73684;SDS011;61985;51.070;14.064;2023-02-07T07:56:02;30.90;;;13.43;;
73684;SDS011;61985;51.070;14.064;2023-02-07T07:58:27;25.83;;;12.00;;
73684;SDS011;61985;51.070;14.064;2023-02-07T08:00:53;31.00;;;11.37;;
73684;SDS011;61985;51.070;14.064;2023-02-07T08:03:19;24.40;;;11.23;;
73684;SDS011;61985;51.070;14.064;2023-02-07T08:05:45;24.03;;;11.37;;
73684;SDS011;61985;51.070;14.064;2023-02-07T08:08:11;31.50;;;13.50;;
73684;SDS011;61985;51.070;14.064;2023-02-07T08:10:37;26.87;;;11.30;;
73684;SDS011;61985;51.070;14.064;2023-02-07T08:13:03;29.20;;;12.83;;
73684;SDS011;61985;51.070;14.064;2023-02-07T08:15:29;25.00;;;10.50;;
73684;SDS011;61985;51.070;14.064;2023-02-07T08:17:54;29.17;;;12.23;;
73684;SDS011;61985;51.070;14.064;2023-02-07T08:20:19;22.20;;;10.13;;
73684;SDS011;61985;51.070;14.064;2023-02-07T08:22:45;30.43;;;10.87;;
73684;SDS011;61985;51.070;14.064;2023-02-07T08:25:10;23.90;;;11.17;;
73684;SDS011;61985;51.070;14.064;2023-02-07T08:27:36;33.37;;;11.87;;
73684;SDS011;61985;51.070;14.064;2023-02-07T08:30:03;28.83;;;10.67;;
73684;SDS011;61985;51.070;14.064;2023-02-07T08:32:30;26.63;;;12.03;;
73684;SDS011;61985;51.070;14.064;2023-02-07T08:34:55;26.20;;;10.97;;
73684;SDS011;61985;51.070;14.064;2023-02-07T08:37:20;22.53;;;10.80;;
73684;SDS011;61985;51.070;14.064;2023-02-07T08:39:46;24.83;;;12.27;;
73684;SDS011;61985;51.070;14.064;2023-02-07T08:42:16;26.03;;;10.90;;
73684;SDS011;61985;51.070;14.064;2023-02-07T08:44:42;30.27;;;12.23;;
73684;SDS011;61985;51.070;14.064;2023-02-07T08:47:07;27.67;;;10.70;;
73684;SDS011;61985;51.070;14.064;2023-02-07T08:49:32;26.07;;;12.23;;
73684;SDS011;61985;51.070;14.064;2023-02-07T08:51:58;23.20;;;10.30;;
73684;SDS011;61985;51.070;14.064;2023-02-07T08:54:23;30.47;;;12.27;;
73684;SDS011;61985;51.070;14.064;2023-02-07T08:56:48;24.23;;;11.40;;
73684;SDS011;61985;51.070;14.064;2023-02-07T08:59:14;26.33;;;11.47;;
73684;SDS011;61985;51.070;14.064;2023-02-07T09:01:39;26.63;;;11.90;;
73684;SDS011;61985;51.070;14.064;2023-02-07T09:04:04;29.43;;;12.90;;
73684;SDS011;61985;51.070;14.064;2023-02-07T09:06:30;56.10;;;24.23;;
73684;SDS011;61985;51.070;14.064;2023-02-07T09:08:55;36.00;;;16.33;;
73684;SDS011;61985;51.070;14.064;2023-02-07T09:11:20;34.43;;;15.73;;
73684;SDS011;61985;51.070;14.064;2023-02-07T09:13:46;32.63;;;15.77;;
73684;SDS011;61985;51.070;14.064;2023-02-07T09:16:12;28.13;;;13.53;;
73684;SDS011;61985;51.070;14.064;2023-02-07T09:18:38;26.90;;;12.90;;
73684;SDS011;61985;51.070;14.064;2023-02-07T09:21:04;41.20;;;20.87;;
73684;SDS011;61985;51.070;14.064;2023-02-07T09:23:31;30.83;;;13.53;;
73684;SDS011;61985;51.070;14.064;2023-02-07T09:28:29;29.47;;;11.73;;
73684;SDS011;61985;51.070;14.064;2023-02-07T09:30:55;27.50;;;12.77;;
73684;SDS011;61985;51.070;14.064;2023-02-07T09:33:20;27.80;;;13.53;;
73684;SDS011;61985;51.070;14.064;2023-02-07T09:35:49;34.83;;;15.13;;
73684;SDS011;61985;51.070;14.064;2023-02-07T09:38:17;32.07;;;12.87;;
73684;SDS011;61985;51.070;14.064;2023-02-07T09:40:44;27.90;;;13.17;;
73684;SDS011;61985;51.070;14.064;2023-02-07T09:43:26;28.20;;;11.30;;
73684;SDS011;61985;51.070;14.064;2023-02-07T09:48:22;21.87;;;10.20;;
73684;SDS011;61985;51.070;14.064;2023-02-07T09:50:54;26.93;;;11.47;;
73684;SDS011;61985;51.070;14.064;2023-02-07T09:53:27;26.23;;;11.37;;
73684;SDS011;61985;51.070;14.064;2023-02-07T09:56:08;25.90;;;11.40;;
73684;SDS011;61985;51.070;14.064;2023-02-07T09:58:46;20.53;;;10.23;;
73684;SDS011;61985;51.070;14.064;2023-02-07T10:01:18;26.73;;;12.37;;
73684;SDS011;61985;51.070;14.064;2023-02-07T10:04:16;26.53;;;11.37;;
73684;SDS011;61985;51.070;14.064;2023-02-07T10:06:48;27.93;;;12.13;;
73684;SDS011;61985;51.070;14.064;2023-02-07T10:09:31;22.67;;;10.00;;
73684;SDS011;61985;51.070;14.064;2023-02-07T10:15:22;24.50;;;9.40;;
73684;SDS011;61985;51.070;14.064;2023-02-07T10:20:42;30.60;;;13.77;;
73684;SDS011;61985;51.070;14.064;2023-02-07T10:24:01;19.53;;;8.97;;
73684;SDS011;61985;51.070;14.064;2023-02-07T10:26:33;20.10;;;8.73;;
73684;SDS011;61985;51.070;14.064;2023-02-07T10:29:05;20.50;;;8.17;;
73684;SDS011;61985;51.070;14.064;2023-02-07T10:31:42;26.23;;;10.83;;
73684;SDS011;61985;51.070;14.064;2023-02-07T10:34:21;24.67;;;10.17;;
73684;SDS011;61985;51.070;14.064;2023-02-07T10:36:50;20.23;;;9.30;;
73684;SDS011;61985;51.070;14.064;2023-02-07T10:42:17;19.92;;;8.57;;
73684;SDS011;61985;51.070;14.064;2023-02-07T10:44:44;23.23;;;9.00;;
73684;SDS011;61985;51.070;14.064;2023-02-07T10:47:16;23.90;;;9.27;;
73684;SDS011;61985;51.070;14.064;2023-02-07T10:49:43;19.02;;;10.77;;
73684;SDS011;61985;51.070;14.064;2023-02-07T10:52:25;20.85;;;9.45;;
73684;SDS011;61985;51.070;14.064;2023-02-07T10:54:57;19.80;;;8.70;;
73684;SDS011;61985;51.070;14.064;2023-02-07T10:57:27;19.98;;;8.90;;
73684;SDS011;61985;51.070;14.064;2023-02-07T10:59:57;20.08;;;9.48;;
73684;SDS011;61985;51.070;14.064;2023-02-07T11:04:58;23.10;;;9.85;;
73684;SDS011;61985;51.070;14.064;2023-02-07T11:07:25;20.20;;;8.87;;
73684;SDS011;61985;51.070;14.064;2023-02-07T11:09:51;23.37;;;9.13;;
73684;SDS011;61985;51.070;14.064;2023-02-07T11:12:33;21.60;;;9.43;;
73684;SDS011;61985;51.070;14.064;2023-02-07T11:15:17;25.25;;;10.13;;
73684;SDS011;61985;51.070;14.064;2023-02-07T11:17:48;22.02;;;9.20;;
73684;SDS011;61985;51.070;14.064;2023-02-07T11:20:18;19.77;;;9.25;;
73684;SDS011;61985;51.070;14.064;2023-02-07T11:22:51;17.95;;;8.60;;
73684;SDS011;61985;51.070;14.064;2023-02-07T11:25:18;23.13;;;10.57;;
73684;SDS011;61985;51.070;14.064;2023-02-07T11:27:50;26.50;;;10.20;;
73684;SDS011;61985;51.070;14.064;2023-02-07T11:30:18;25.85;;;10.77;;
73684;SDS011;61985;51.070;14.064;2023-02-07T11:32:53;15.65;;;6.97;;
73684;SDS011;61985;51.070;14.064;2023-02-07T11:35:23;23.45;;;9.20;;
73684;SDS011;61985;51.070;14.064;2023-02-07T11:38:02;17.92;;;8.98;;
73684;SDS011;61985;51.070;14.064;2023-02-07T11:40:37;17.08;;;8.77;;
73684;SDS011;61985;51.070;14.064;2023-02-07T11:45:46;12.43;;;5.72;;
73684;SDS011;61985;51.070;14.064;2023-02-07T11:48:17;13.57;;;5.57;;
73684;SDS011;61985;51.070;14.064;2023-02-07T11:50:51;19.23;;;8.23;;
73684;SDS011;61985;51.070;14.064;2023-02-07T11:53:23;17.95;;;7.65;;
73684;SDS011;61985;51.070;14.064;2023-02-07T11:55:52;18.00;;;8.38;;
73684;SDS011;61985;51.070;14.064;2023-02-07T12:01:02;17.55;;;8.98;;
73684;SDS011;61985;51.070;14.064;2023-02-07T12:03:48;18.42;;;9.27;;
73684;SDS011;61985;51.070;14.064;2023-02-07T12:06:17;27.30;;;9.73;;
73684;SDS011;61985;51.070;14.064;2023-02-07T12:08:46;18.67;;;8.60;;
73684;SDS011;61985;51.070;14.064;2023-02-07T12:11:18;21.80;;;8.85;;
73684;SDS011;61985;51.070;14.064;2023-02-07T12:13:49;18.23;;;9.45;;
73684;SDS011;61985;51.070;14.064;2023-02-07T12:19:00;22.90;;;9.38;;
73684;SDS011;61985;51.070;14.064;2023-02-07T12:21:30;24.05;;;10.60;;
73684;SDS011;61985;51.070;14.064;2023-02-07T12:24:01;20.70;;;10.65;;
73684;SDS011;61985;51.070;14.064;2023-02-07T12:26:30;22.00;;;9.30;;
73684;SDS011;61985;51.070;14.064;2023-02-07T12:31:49;19.50;;;9.40;;
73684;SDS011;61985;51.070;14.064;2023-02-07T12:34:26;25.02;;;11.35;;
73684;SDS011;61985;51.070;14.064;2023-02-07T12:36:59;19.25;;;9.15;;
73684;SDS011;61985;51.070;14.064;2023-02-07T12:39:38;24.20;;;10.18;;
73684;SDS011;61985;51.070;14.064;2023-02-07T12:42:18;28.63;;;10.30;;
73684;SDS011;61985;51.070;14.064;2023-02-07T12:44:54;17.40;;;8.82;;
73684;SDS011;61985;51.070;14.064;2023-02-07T12:55:45;22.65;;;9.60;;
73684;SDS011;61985;51.070;14.064;2023-02-07T13:03:54;18.77;;;8.38;;
73684;SDS011;61985;51.070;14.064;2023-02-07T13:09:23;20.35;;;9.13;;
73684;SDS011;61985;51.070;14.064;2023-02-07T13:20:14;15.02;;;7.10;;
73684;SDS011;61985;51.070;14.064;2023-02-07T13:22:48;17.70;;;7.90;;
73684;SDS011;61985;51.070;14.064;2023-02-07T13:25:21;16.65;;;8.18;;
73684;SDS011;61985;51.070;14.064;2023-02-07T13:27:49;14.15;;;6.85;;
73684;SDS011;61985;51.070;14.064;2023-02-07T13:30:18;18.13;;;7.90;;
73684;SDS011;61985;51.070;14.064;2023-02-07T13:32:45;17.10;;;7.43;;
73684;SDS011;61985;51.070;14.064;2023-02-07T13:40:48;14.70;;;6.07;;
73684;SDS011;61985;51.070;14.064;2023-02-07T13:46:39;13.85;;;6.57;;
73684;SDS011;61985;51.070;14.064;2023-02-07T13:49:25;17.65;;;6.63;;
73684;SDS011;61985;51.070;14.064;2023-02-07T13:52:02;14.20;;;6.55;;
73684;SDS011;61985;51.070;14.064;2023-02-07T13:54:39;14.23;;;6.32;;
73684;SDS011;61985;51.070;14.064;2023-02-07T14:00:27;15.15;;;6.60;;
73684;SDS011;61985;51.070;14.064;2023-02-07T14:02:59;12.63;;;6.57;;
73684;SDS011;61985;51.070;14.064;2023-02-07T14:07:55;14.73;;;6.18;;
73684;SDS011;61985;51.070;14.064;2023-02-07T14:10:34;13.77;;;5.93;;
73684;SDS011;61985;51.070;14.064;2023-02-07T14:13:05;16.92;;;6.55;;
73684;SDS011;61985;51.070;14.064;2023-02-07T14:28:07;12.43;;;5.97;;
73684;SDS011;61985;51.070;14.064;2023-02-07T14:33:14;11.25;;;6.53;;
73684;SDS011;61985;51.070;14.064;2023-02-07T14:35:44;11.05;;;5.35;;
73684;SDS011;61985;51.070;14.064;2023-02-07T14:38:31;21.67;;;9.68;;
73684;SDS011;61985;51.070;14.064;2023-02-07T14:41:02;13.55;;;6.63;;
73684;SDS011;61985;51.070;14.064;2023-02-07T14:43:33;12.45;;;6.72;;
73684;SDS011;61985;51.070;14.064;2023-02-07T14:46:07;15.23;;;6.25;;
73684;SDS011;61985;51.070;14.064;2023-02-07T14:51:22;16.67;;;6.82;;
73684;SDS011;61985;51.070;14.064;2023-02-07T14:59:13;17.83;;;7.72;;
73684;SDS011;61985;51.070;14.064;2023-02-07T15:01:47;17.17;;;8.30;;
73684;SDS011;61985;51.070;14.064;2023-02-07T15:04:12;38.42;;;20.95;;
73684;SDS011;61985;51.070;14.064;2023-02-07T15:06:39;16.92;;;8.48;;
73684;SDS011;61985;51.070;14.064;2023-02-07T15:09:10;19.77;;;9.85;;
73684;SDS011;61985;51.070;14.064;2023-02-07T15:11:43;23.67;;;11.95;;
73684;SDS011;61985;51.070;14.064;2023-02-07T15:14:13;21.52;;;11.30;;
73684;SDS011;61985;51.070;14.064;2023-02-07T15:16:49;23.67;;;11.38;;
73684;SDS011;61985;51.070;14.064;2023-02-07T15:19:24;19.35;;;9.43;;
73684;SDS011;61985;51.070;14.064;2023-02-07T15:21:55;19.33;;;8.73;;
73684;SDS011;61985;51.070;14.064;2023-02-07T15:24:35;18.33;;;8.85;;
73684;SDS011;61985;51.070;14.064;2023-02-07T15:27:03;19.85;;;9.75;;
73684;SDS011;61985;51.070;14.064;2023-02-07T15:29:32;22.00;;;9.38;;
73684;SDS011;61985;51.070;14.064;2023-02-07T15:31:59;24.42;;;10.60;;
73684;SDS011;61985;51.070;14.064;2023-02-07T15:34:26;23.10;;;10.00;;
73684;SDS011;61985;51.070;14.064;2023-02-07T15:36:57;19.55;;;9.60;;
73684;SDS011;61985;51.070;14.064;2023-02-07T15:39:25;18.95;;;8.70;;
73684;SDS011;61985;51.070;14.064;2023-02-07T15:41:53;19.48;;;8.35;;
73684;SDS011;61985;51.070;14.064;2023-02-07T15:46:53;21.05;;;9.00;;
73684;SDS011;61985;51.070;14.064;2023-02-07T15:51:59;18.15;;;7.75;;
73684;SDS011;61985;51.070;14.064;2023-02-07T15:54:28;19.90;;;8.20;;
73684;SDS011;61985;51.070;14.064;2023-02-07T15:56:57;16.52;;;8.40;;
73684;SDS011;61985;51.070;14.064;2023-02-07T15:59:24;17.65;;;8.18;;
73684;SDS011;61985;51.070;14.064;2023-02-07T16:01:53;18.83;;;8.35;;
73684;SDS011;61985;51.070;14.064;2023-02-07T16:04:24;20.08;;;8.73;;
73684;SDS011;61985;51.070;14.064;2023-02-07T16:06:53;20.10;;;8.18;;
73684;SDS011;61985;51.070;14.064;2023-02-07T16:14:57;18.13;;;8.77;;
73684;SDS011;61985;51.070;14.064;2023-02-07T16:17:25;21.77;;;8.65;;
73684;SDS011;61985;51.070;14.064;2023-02-07T16:20:01;25.42;;;9.85;;
73684;SDS011;61985;51.070;14.064;2023-02-07T16:22:28;21.48;;;9.32;;
73684;SDS011;61985;51.070;14.064;2023-02-07T16:24:54;22.63;;;10.18;;
73684;SDS011;61985;51.070;14.064;2023-02-07T16:27:24;24.48;;;9.75;;
73684;SDS011;61985;51.070;14.064;2023-02-07T16:29:54;24.10;;;10.25;;
73684;SDS011;61985;51.070;14.064;2023-02-07T16:32:20;21.58;;;8.85;;
73684;SDS011;61985;51.070;14.064;2023-02-07T16:34:46;19.88;;;9.18;;
73684;SDS011;61985;51.070;14.064;2023-02-07T16:37:11;21.40;;;9.73;;
73684;SDS011;61985;51.070;14.064;2023-02-07T16:39:38;22.95;;;9.73;;
73684;SDS011;61985;51.070;14.064;2023-02-07T16:42:04;22.63;;;9.45;;
73684;SDS011;61985;51.070;14.064;2023-02-07T16:44:32;34.65;;;16.77;;
73684;SDS011;61985;51.070;14.064;2023-02-07T16:46:59;240.10;;;91.05;;
73684;SDS011;61985;51.070;14.064;2023-02-07T16:49:25;169.57;;;64.70;;